Terminal Aerodrome Forecast
Issued by NWS

Home | Current Version | Previous Version | Text Only | Print | Product List | Glossary Off
Versions: 1 2 3 4 5 6 7 8 9 10 11 12 13 14

000
FTUS43 KMPX 260520
TAFRNH
TAF
KRNH 260520Z 2606/2706 00000KT P6SM SCT120 OVC200
     FM261600 17007KT P6SM SCT040
     FM270100 14003KT P6SM SCT040=

USA.gov is the U.S. government's official web portal to all federal, state and local government web resources and services.